CDT,Max TemperatureF,Mean TemperatureF,Min TemperatureF,Max Dew PointF,MeanDew PointF,Min DewpointF,Max Humidity, Mean Humidity, Min Humidity, Max Sea Level PressureIn, Mean Sea Level PressureIn, Min Sea Level PressureIn, Max VisibilityMiles, Mean VisibilityMiles, Min VisibilityMiles, Max Wind SpeedMPH, Mean Wind SpeedMPH, Max Gust SpeedMPH,PrecipitationIn, CloudCover, Events, WindDirDegrees
2013-7-1,82,68,55,59,53,49,77,58,39,30.18,30.14,30.10,10,10,10,9,5,22,0.01,2,,56
2013-7-2,75,65,55,55,51,47,84,61,41,30.17,30.13,30.08,10,10,10,9,6,,0.00,0,,100
2013-7-3,75,62,50,59,51,43,93,69,34,30.12,30.08,30.03,10,10,9,12,2,,0.00,3,Rain,151
2013-7-4,81,69,57,60,58,55,100,76,47,30.06,30.02,29.98,10,7,2,12,3,,0.00,3,,197
2013-7-5,84,70,57,61,59,56,93,66,41,30.02,29.98,29.94,10,10,7,16,7,22,0.00,0,,192
2013-7-6,86,74,62,65,63,59,93,68,48,29.99,29.96,29.91,10,10,6,13,8,,0.00,0,,191
2013-7-7,87,78,68,71,67,64,87,75,53,29.94,29.90,29.87,10,10,8,13,6,18,0.02,2,Rain,186
2013-7-8,86,77,68,70,69,66,97,83,53,29.99,29.92,29.85,10,9,2,15,5,20,0.30,4,Rain,6
2013-7-9,84,74,66,73,70,66,100,88,60,29.99,29.90,29.77,10,6,0,20,5,30,0.20,4,Fog-Rain,197
2013-7-10,75,66,59,68,57,52,90,69,49,30.05,29.95,29.82,10,10,9,17,10,28,0.00,1,,323
2013-7-11,80,68,57,59,57,55,93,67,42,30.12,30.09,30.05,10,10,8,6,2,,0.00,1,Rain,184
2013-7-12,81,69,57,61,58,56,97,68,43,30.14,30.09,30.04,10,9,5,16,7,22,0.00,0,,180
2013-7-13,80,70,61,63,60,57,90,71,50,30.15,30.11,30.07,10,10,10,14,7,22,0.00,0,,175
2013-7-14,84,72,60,66,62,57,90,70,49,30.23,30.20,30.16,10,10,10,13,6,,0.00,1,,168
2013-7-15,84,75,66,72,68,64,93,78,58,30.30,30.26,30.22,10,9,1,10,2,20,0.23,3,Rain,179
2013-7-16,89,79,69,73,71,69,100,80,53,30.27,30.24,30.21,10,7,2,14,5,18,0.00,1,,210
2013-7-17,90,80,72,73,69,66,93,70,46,30.27,30.22,30.15,10,10,10,12,6,,0.00,1,,257
2013-7-18,91,81,72,72,69,67,91,67,48,30.14,29.98,29.81,10,10,10,17,8,26,0.00,1,,231
2013-7-19,87,76,66,72,64,58,90,64,44,29.85,29.76,29.72,10,10,10,18,11,28,0.02,1,Rain,274
2013-7-20,80,70,60,60,56,53,93,64,43,29.97,29.91,29.84,10,10,10,9,5,,0.00,3,,342
2013-7-21,66,62,57,61,58,53,100,88,73,30.05,29.97,29.91,10,8,0,12,7,,1.03,7,Fog-Rain,115
2013-7-22,84,72,60,72,64,59,100,87,61,29.91,29.80,29.66,10,5,0,17,7,23,0.00,5,Fog,187
2013-7-23,72,63,55,56,50,46,90,64,44,30.03,29.92,29.78,10,10,10,15,9,25,0.00,3,,3
2013-7-24,73,60,48,56,50,46,97,67,42,30.11,30.06,30.02,10,10,10,10,2,,0.00,3,,206
2013-7-25,80,66,53,63,59,52,97,82,56,30.03,29.98,29.94,10,9,2,18,5,28,0.15,3,Rain,218
2013-7-26,73,62,51,66,57,44,100,82,51,29.99,29.92,29.86,10,8,1,20,8,25,0.24,6,Rain,277
2013-7-27,57,50,44,49,45,42,93,82,69,29.98,29.92,29.86,10,10,7,15,9,21,0.00,7,Rain,309
2013-7-28,64,55,46,54,49,44,94,83,63,30.04,29.93,29.86,10,10,3,18,9,24,0.00,7,Rain,314
2013-7-29,75,60,48,56,52,47,93,70,49,30.16,30.12,30.05,10,10,10,9,6,,0.00,1,,327
2013-7-30,73,65,57,62,58,55,97,80,57,30.18,30.13,30.07,10,10,9,8,3,,0.00,7,Rain,181
2013-7-31,77,67,57,64,61,56,100,83,62,30.07,30.02,29.95,10,10,3,13,6,23,0.03,5,Rain,264